createdAt,value
2022-12-16T00:00:09.713Z,52870.69
2022-12-16T00:02:31.369Z,52881.71
2022-12-16T00:03:34.558Z,52839.63
2022-12-16T00:05:56.238Z,52833.62
2022-12-16T00:06:58.907Z,52855.66
2022-12-16T00:08:01.546Z,52871.70
2022-12-16T00:09:04.347Z,52913.78
2022-12-16T00:10:07.115Z,52819.59
2022-12-16T00:11:09.933Z,52882.71
2022-12-16T00:12:12.668Z,52868.69
2022-12-16T00:13:15.332Z,52915.78
2022-12-16T00:14:17.997Z,52909.77
2022-12-16T00:15:20.877Z,52891.73
2022-12-16T00:16:23.627Z,52908.77
2022-12-16T00:17:26.318Z,52893.74
2022-12-16T00:18:28.993Z,52892.73
2022-12-16T00:19:31.681Z,52875.70
2022-12-16T00:20:34.326Z,52860.67
2022-12-16T00:21:37.174Z,52865.68
2022-12-16T00:22:39.975Z,52869.69
2022-12-16T00:23:42.748Z,52822.59
2022-12-16T00:24:45.422Z,52891.73
2022-12-16T00:25:48.193Z,52855.66
2022-12-16T00:26:51.065Z,52865.68
2022-12-16T00:28:00.223Z,52872.70
2022-12-16T00:28:59.379Z,52857.67
2022-12-16T00:30:02.050Z,52887.73
2022-12-16T00:31:04.717Z,52937.83
2022-12-16T00:32:07.382Z,52909.77
2022-12-16T00:33:10.769Z,52921.79
2022-12-16T00:34:13.852Z,52855.66
2022-12-16T00:35:16.620Z,52897.75
2022-12-16T00:36:19.395Z,52874.70
2022-12-16T00:37:22.371Z,52870.69
2022-12-16T00:38:25.447Z,52846.64
2022-12-16T00:39:28.536Z,52847.64
2022-12-16T00:40:31.301Z,52840.63
2022-12-16T00:41:34.176Z,52832.62
2022-12-16T00:42:36.950Z,52891.73
2022-12-16T00:43:40.026Z,52834.62
2022-12-16T00:44:42.810Z,52871.70
2022-12-16T00:45:45.529Z,52899.75
2022-12-16T00:46:48.452Z,52885.72
2022-12-16T00:47:51.525Z,52885.72
2022-12-16T00:48:54.812Z,52890.73
2022-12-16T00:49:58.315Z,52911.77
2022-12-16T00:51:01.072Z,52899.75
2022-12-16T00:52:04.251Z,52895.74
2022-12-16T00:53:07.231Z,52894.74
2022-12-16T00:54:11.641Z,52889.73
2022-12-16T00:55:14.410Z,52937.83
2022-12-16T00:56:17.495Z,52867.68
2022-12-16T00:57:20.658Z,52847.64
2022-12-16T00:58:23.650Z,52870.69
2022-12-16T00:59:26.522Z,52882.71
2022-12-16T01:00:29.195Z,52877.71
2022-12-16T01:01:32.027Z,52845.64
2022-12-16T01:02:34.886Z,52859.67
2022-12-16T01:03:38.275Z,52850.65
2022-12-16T01:04:41.108Z,52829.61
2022-12-16T01:05:43.775Z,52921.79
2022-12-16T01:06:46.551Z,52889.73
2022-12-16T01:07:49.220Z,52863.68
2022-12-16T01:08:53.833Z,52880.71
2022-12-16T01:09:58.037Z,52915.78
2022-12-16T01:11:01.116Z,52872.70
2022-12-16T01:12:04.093Z,52917.79
2022-12-16T01:13:07.072Z,52888.73
2022-12-16T01:14:11.483Z,52870.69
2022-12-16T01:15:14.458Z,52892.73
2022-12-16T01:16:17.438Z,52866.68
2022-12-16T01:17:21.128Z,52897.75
2022-12-16T01:18:23.806Z,52905.76
2022-12-16T01:19:26.571Z,52908.77
2022-12-16T01:20:29.342Z,52943.84
2022-12-16T01:21:32.317Z,52967.89
2022-12-16T01:22:35.193Z,52957.87
2022-12-16T01:23:38.071Z,52928.81
2022-12-16T01:24:41.045Z,52949.85
2022-12-16T01:25:43.921Z,52938.83
2022-12-16T01:26:47.007Z,52967.89
2022-12-16T01:27:49.984Z,52929.81
2022-12-16T01:28:53.474Z,52940.83
2022-12-16T01:29:57.793Z,52932.82
2022-12-16T01:31:00.548Z,52973.90
2022-12-16T01:32:03.481Z,52957.87
2022-12-16T01:33:06.609Z,52953.86
2022-12-16T01:34:09.479Z,52930.81
2022-12-16T01:35:43.819Z,52967.89
2022-12-16T01:36:16.893Z,52958.87
2022-12-16T01:37:20.054Z,52989.93
2022-12-16T01:38:22.924Z,52961.87
2022-12-16T01:39:25.902Z,52961.87
2022-12-16T01:40:28.885Z,52940.83
2022-12-16T01:41:31.653Z,52922.80
2022-12-16T01:42:34.627Z,52910.77
2022-12-16T01:43:37.406Z,52905.76
2022-12-16T01:44:40.173Z,52914.78
2022-12-16T01:45:43.134Z,52915.78
2022-12-16T01:46:46.133Z,52936.82
2022-12-16T01:47:48.926Z,52959.87
2022-12-16T01:48:51.871Z,52915.78
2022-12-16T01:49:55.055Z,52943.84
2022-12-16T01:50:57.928Z,52948.85
2022-12-16T01:52:00.709Z,52946.84
2022-12-16T01:53:03.473Z,52890.73
2022-12-16T01:54:06.249Z,52939.83
2022-12-16T01:55:09.019Z,52934.82
2022-12-16T01:56:11.695Z,52928.81
2022-12-16T01:57:14.575Z,52942.84
2022-12-16T01:58:17.447Z,52959.87
2022-12-16T01:59:20.212Z,52955.86
2022-12-16T02:00:23.187Z,52938.83
2022-12-16T02:01:26.229Z,52931.82
2022-12-16T02:02:29.710Z,52956.86
2022-12-16T02:03:33.151Z,52914.78
2022-12-16T02:04:36.120Z,52910.77
2022-12-16T02:05:39.097Z,52934.82
2022-12-16T02:06:41.679Z,52935.82
2022-12-16T02:07:44.638Z,52904.76
2022-12-16T02:08:47.412Z,52935.82
2022-12-16T02:09:50.392Z,52931.82
2022-12-16T02:10:53.367Z,52935.82
2022-12-16T02:11:57.879Z,52919.79
2022-12-16T02:13:00.652Z,52897.75
2022-12-16T02:14:03.428Z,52907.77
2022-12-16T02:15:05.992Z,52867.68
2022-12-16T02:16:12.725Z,52869.69
2022-12-16T02:17:13.248Z,52844.64
2022-12-16T02:18:16.048Z,52872.70
2022-12-16T02:19:18.821Z,52827.61
2022-12-16T02:20:21.602Z,52877.71
2022-12-16T02:21:24.162Z,52864.68
2022-12-16T02:22:26.932Z,52914.78
2022-12-16T02:23:30.291Z,52929.81
2022-12-16T02:24:33.201Z,52857.67
2022-12-16T02:25:35.863Z,52824.60
2022-12-16T02:26:38.578Z,52842.64
2022-12-16T02:27:41.544Z,52844.64
2022-12-16T02:28:44.385Z,52847.64
2022-12-16T02:29:47.159Z,52796.54
2022-12-16T02:30:49.973Z,52802.55
2022-12-16T02:31:53.987Z,52849.65
2022-12-16T02:32:56.908Z,52783.52
2022-12-16T02:33:59.680Z,52817.59
2022-12-16T02:35:02.476Z,52849.65
2022-12-16T02:36:05.225Z,52809.57
2022-12-16T02:37:07.895Z,52818.59
2022-12-16T02:38:11.486Z,52843.64
2022-12-16T02:39:14.364Z,52827.61
2022-12-16T02:40:17.241Z,52795.54
2022-12-16T02:41:20.111Z,52806.56
2022-12-16T02:42:23.113Z,52775.50
2022-12-16T02:43:25.966Z,52801.55
2022-12-16T02:44:28.738Z,52797.55
2022-12-16T02:45:31.695Z,52810.57
2022-12-16T02:46:34.384Z,52789.53
2022-12-16T02:47:37.471Z,52818.59
2022-12-16T02:48:40.232Z,52773.50
2022-12-16T02:49:43.317Z,52785.52
2022-12-16T02:50:46.288Z,52781.52
2022-12-16T02:51:49.173Z,52797.55
2022-12-16T02:52:52.446Z,52749.45
2022-12-16T02:53:55.425Z,52817.59
2022-12-16T02:54:58.318Z,52749.45
2022-12-16T02:56:01.084Z,52777.50
2022-12-16T02:57:03.843Z,52795.54
2022-12-16T02:58:06.726Z,52778.51
2022-12-16T02:59:09.694Z,52788.53
2022-12-16T03:00:12.374Z,52807.57
2022-12-16T03:01:15.095Z,52805.56
2022-12-16T03:02:18.138Z,52794.54
2022-12-16T03:03:20.940Z,52834.62
2022-12-16T03:04:23.878Z,52805.56
2022-12-16T03:05:26.634Z,52832.62
2022-12-16T03:06:29.308Z,52830.61
2022-12-16T03:07:31.973Z,52852.66
2022-12-16T03:08:34.850Z,52816.58
2022-12-16T03:09:37.721Z,52837.62
2022-12-16T03:10:40.711Z,52849.65
2022-12-16T03:11:43.479Z,52801.55
2022-12-16T03:12:47.475Z,52793.54
2022-12-16T03:13:50.251Z,52803.56
2022-12-16T03:14:52.921Z,52777.50
2022-12-16T03:15:55.691Z,52801.55
2022-12-16T03:16:58.625Z,52809.57
2022-12-16T03:18:01.233Z,52757.46
2022-12-16T03:19:04.246Z,52823.60
2022-12-16T03:20:06.986Z,52774.50
2022-12-16T03:21:09.751Z,52790.53
2022-12-16T03:22:12.845Z,52810.57
2022-12-16T03:23:15.511Z,52802.55
2022-12-16T03:24:18.481Z,52817.59
2022-12-16T03:25:21.255Z,52798.55
2022-12-16T03:26:23.937Z,52792.54
2022-12-16T03:27:27.311Z,52811.57
2022-12-16T03:28:30.080Z,52846.64
2022-12-16T03:29:33.163Z,52801.55
2022-12-16T03:30:36.307Z,52832.62
2022-12-16T03:31:39.122Z,52807.57
2022-12-16T03:32:41.685Z,52824.60
2022-12-16T03:33:44.453Z,52806.56
2022-12-16T03:34:47.435Z,52823.60
2022-12-16T03:35:50.412Z,52814.58
2022-12-16T03:36:53.287Z,52793.54
2022-12-16T03:37:56.159Z,52801.55
2022-12-16T03:38:58.834Z,52783.52
2022-12-16T03:40:01.397Z,52727.41
2022-12-16T03:41:04.168Z,52731.41
2022-12-16T03:42:06.942Z,52774.50
2022-12-16T03:43:09.611Z,52806.56
2022-12-16T03:44:12.386Z,52831.61
2022-12-16T03:45:15.055Z,52828.61
2022-12-16T03:46:17.987Z,52824.60
2022-12-16T03:47:23.916Z,52831.61
2022-12-16T03:48:25.413Z,52806.56
2022-12-16T03:49:28.193Z,52842.64
2022-12-16T03:50:30.860Z,52874.70
2022-12-16T03:51:33.631Z,52867.68
2022-12-16T03:52:36.506Z,52883.72
2022-12-16T03:53:39.592Z,52861.67
2022-12-16T03:54:42.668Z,52837.62
2022-12-16T03:55:45.545Z,52819.59
2022-12-16T03:56:48.524Z,52823.60
2022-12-16T03:57:51.392Z,52814.58
2022-12-16T03:58:54.162Z,52807.57
2022-12-16T03:59:57.145Z,52801.55
2022-12-16T04:01:00.126Z,52810.57
2022-12-16T04:02:03.247Z,52789.53
2022-12-16T04:03:06.594Z,52795.54
2022-12-16T04:04:09.668Z,52794.54
2022-12-16T04:05:12.647Z,52809.57
2022-12-16T04:06:15.411Z,52845.64
2022-12-16T04:07:18.082Z,52792.54
2022-12-16T04:08:20.853Z,52794.54
2022-12-16T04:09:23.830Z,52825.60
2022-12-16T04:10:26.710Z,52821.59
2022-12-16T04:11:29.683Z,52768.49
2022-12-16T04:12:32.656Z,52781.52
2022-12-16T04:13:36.163Z,52819.59
2022-12-16T04:14:39.533Z,52808.57
2022-12-16T04:15:42.391Z,52843.64
2022-12-16T04:16:45.393Z,52827.61
2022-12-16T04:17:48.262Z,52833.62
2022-12-16T04:18:51.134Z,52849.65
2022-12-16T04:19:55.271Z,52819.59
2022-12-16T04:20:58.012Z,52797.55
2022-12-16T04:22:00.687Z,52817.59
2022-12-16T04:23:03.245Z,52834.62
2022-12-16T04:24:05.921Z,52807.57
2022-12-16T04:25:08.591Z,52829.61
2022-12-16T04:26:11.154Z,52822.59
2022-12-16T04:27:15.950Z,52821.59
2022-12-16T04:28:18.239Z,52828.61
2022-12-16T04:29:20.813Z,52831.61
2022-12-16T04:30:23.683Z,52833.62
2022-12-16T04:31:26.422Z,52790.53
2022-12-16T04:32:29.118Z,52787.53
2022-12-16T04:33:32.319Z,52818.59
2022-12-16T04:34:35.074Z,52813.58
2022-12-16T04:35:37.846Z,52838.62
2022-12-16T04:36:40.415Z,52786.52
2022-12-16T04:37:42.987Z,52811.57
2022-12-16T04:38:45.654Z,52815.58
2022-12-16T04:39:48.433Z,52809.57
2022-12-16T04:40:51.093Z,52867.68
2022-12-16T04:41:53.778Z,52904.76
2022-12-16T04:42:56.433Z,52920.79
2022-12-16T04:43:59.120Z,52918.79
2022-12-16T04:45:01.773Z,52944.84
2022-12-16T04:46:04.610Z,52985.92
2022-12-16T04:47:07.536Z,52976.91
2022-12-16T04:48:10.106Z,52963.88
2022-12-16T04:49:12.769Z,52957.87
2022-12-16T04:50:15.336Z,52941.84
2022-12-16T04:51:18.407Z,52888.73
2022-12-16T04:52:21.384Z,52864.68
2022-12-16T04:53:24.360Z,52862.68
2022-12-16T04:54:27.025Z,52933.82
2022-12-16T04:55:29.905Z,52901.75
2022-12-16T04:56:32.788Z,52879.71
2022-12-16T04:57:35.573Z,52918.79
2022-12-16T04:58:38.233Z,52957.87
2022-12-16T04:59:40.889Z,52961.87
2022-12-16T05:00:43.568Z,52915.78
2022-12-16T05:01:46.362Z,52973.90
2022-12-16T05:02:49.427Z,52990.93
2022-12-16T05:03:52.427Z,52905.76
2022-12-16T05:04:55.065Z,52911.77
2022-12-16T05:05:57.953Z,52884.72
2022-12-16T05:07:00.811Z,52854.66
2022-12-16T05:08:03.793Z,52869.69
2022-12-16T05:09:06.458Z,52854.66
2022-12-16T05:10:09.125Z,52835.62
2022-12-16T05:11:12.001Z,52847.64
2022-12-16T05:12:14.673Z,52791.54
2022-12-16T05:13:17.649Z,52800.55
2022-12-16T05:14:21.756Z,52812.58
2022-12-16T05:15:24.625Z,52847.64
2022-12-16T05:16:27.813Z,52801.55
2022-12-16T05:17:30.690Z,52843.64
2022-12-16T05:18:33.970Z,52859.67
2022-12-16T05:19:36.745Z,52846.64
2022-12-16T05:20:39.649Z,52840.63
2022-12-16T05:21:42.695Z,52855.66
2022-12-16T05:22:45.469Z,52863.68
2022-12-16T05:23:48.444Z,52849.65
2022-12-16T05:24:53.192Z,52841.63
2022-12-16T05:25:55.834Z,52862.68
2022-12-16T05:26:58.708Z,52845.64
2022-12-16T05:28:01.271Z,52860.67
2022-12-16T05:29:03.935Z,52886.72
2022-12-16T05:30:06.945Z,52901.75
2022-12-16T05:31:09.935Z,52907.77
2022-12-16T05:32:12.768Z,52891.73
2022-12-16T05:33:15.647Z,52913.78
2022-12-16T05:34:18.520Z,52931.82
2022-12-16T05:35:21.494Z,52924.80
2022-12-16T05:36:24.271Z,52905.76
2022-12-16T05:37:26.836Z,52901.75
2022-12-16T05:38:29.609Z,52918.79
2022-12-16T05:39:32.491Z,52930.81
2022-12-16T05:40:38.024Z,52881.71
2022-12-16T05:41:41.106Z,52876.70
2022-12-16T05:42:43.672Z,52870.69
2022-12-16T05:43:46.230Z,52808.57
2022-12-16T05:44:48.803Z,52803.56
2022-12-16T05:45:51.642Z,52837.62
2022-12-16T05:46:54.401Z,52826.61
2022-12-16T05:47:57.033Z,52808.57
2022-12-16T05:48:59.790Z,52814.58
2022-12-16T05:50:02.553Z,52865.68
2022-12-16T05:51:05.334Z,52816.58
2022-12-16T05:52:08.312Z,52843.64
2022-12-16T05:53:11.183Z,52832.62
2022-12-16T05:54:14.173Z,52844.64
2022-12-16T05:55:17.145Z,52852.66
2022-12-16T05:56:19.907Z,52827.61
2022-12-16T05:57:22.686Z,52800.55
2022-12-16T05:58:25.560Z,52824.60
2022-12-16T05:59:28.431Z,52825.60
2022-12-16T06:00:31.417Z,52867.68
2022-12-16T06:01:34.505Z,52851.65
2022-12-16T06:02:37.763Z,52826.61
2022-12-16T06:03:40.770Z,52833.62
2022-12-16T06:04:43.830Z,52876.70
2022-12-16T06:05:46.701Z,52856.66
2022-12-16T06:06:49.585Z,52859.67
2022-12-16T06:07:52.454Z,52861.67
2022-12-16T06:08:55.328Z,52857.67
2022-12-16T06:09:58.106Z,52821.59
2022-12-16T06:11:00.970Z,52825.60
2022-12-16T06:12:03.751Z,52833.62
2022-12-16T06:13:06.624Z,52835.62
2022-12-16T06:14:09.593Z,52818.59
2022-12-16T06:15:12.470Z,52832.62
2022-12-16T06:16:15.660Z,52845.64
2022-12-16T06:17:18.632Z,52853.66
2022-12-16T06:18:21.717Z,52858.67
2022-12-16T06:19:24.596Z,52860.67
2022-12-16T06:20:27.470Z,52937.83
2022-12-16T06:21:31.253Z,52983.92
2022-12-16T06:22:34.556Z,53018.99
2022-12-16T06:23:37.561Z,53030.02
2022-12-16T06:24:40.391Z,53094.14
2022-12-16T06:25:43.057Z,53066.09
2022-12-16T06:26:45.833Z,53107.17
2022-12-16T06:27:48.401Z,53123.20
2022-12-16T06:28:51.176Z,53143.25
2022-12-16T06:29:53.745Z,53190.34
2022-12-16T06:30:56.411Z,53201.37
2022-12-16T06:31:59.446Z,53184.33
2022-12-16T06:33:02.262Z,53185.34
2022-12-16T06:34:04.930Z,53171.30
2022-12-16T06:35:07.702Z,53218.40
2022-12-16T06:36:10.680Z,53264.50
2022-12-16T06:37:13.553Z,53263.50
2022-12-16T06:38:16.431Z,53199.36
2022-12-16T06:39:19.103Z,53112.18
2022-12-16T06:40:21.665Z,53001.96
2022-12-16T06:41:24.350Z,52915.78
2022-12-16T06:42:27.005Z,52875.70
2022-12-16T06:43:30.109Z,52871.70
2022-12-16T06:44:33.064Z,52918.79
2022-12-16T06:45:35.785Z,52973.90
2022-12-16T06:46:38.402Z,53033.02
2022-12-16T06:47:40.971Z,53053.06
2022-12-16T06:48:43.768Z,53074.11
2022-12-16T06:49:46.414Z,53148.26
2022-12-16T06:50:53.633Z,53126.21
2022-12-16T06:51:53.188Z,53162.29
2022-12-16T06:52:55.853Z,53204.37
2022-12-16T06:53:58.632Z,53205.37
2022-12-16T06:55:01.295Z,53153.27
2022-12-16T06:56:03.865Z,53078.11
2022-12-16T06:57:06.736Z,53067.09
2022-12-16T06:58:10.140Z,53076.11
2022-12-16T06:59:13.205Z,53057.07
2022-12-16T07:00:16.285Z,53079.11
2022-12-16T07:01:19.325Z,53021.00
2022-12-16T07:02:22.269Z,52967.89
2022-12-16T07:03:24.908Z,53005.96
2022-12-16T07:04:27.587Z,53011.98
2022-12-16T07:05:30.454Z,52992.94
2022-12-16T07:06:33.022Z,52956.86
2022-12-16T07:07:35.695Z,52959.87
2022-12-16T07:08:38.360Z,52965.88
2022-12-16T07:09:41.026Z,52939.83
2022-12-16T07:10:44.223Z,52911.77
2022-12-16T07:11:46.990Z,52934.82
2022-12-16T07:12:49.860Z,52978.91
2022-12-16T07:13:52.831Z,53026.01
2022-12-16T07:14:55.711Z,53064.08
2022-12-16T07:15:58.788Z,53104.16
2022-12-16T07:17:01.672Z,53018.99
2022-12-16T07:18:04.555Z,53052.06
2022-12-16T07:19:07.413Z,52979.91
2022-12-16T07:20:10.189Z,53064.08
2022-12-16T07:21:13.369Z,53070.10
2022-12-16T07:22:16.253Z,53107.17
2022-12-16T07:23:19.972Z,53105.17
2022-12-16T07:24:23.131Z,53163.29
2022-12-16T07:25:25.994Z,53212.39
2022-12-16T07:26:28.870Z,53249.47
2022-12-16T07:27:31.746Z,53244.46
2022-12-16T07:28:34.835Z,53152.27
2022-12-16T07:29:37.696Z,53118.20
2022-12-16T07:30:40.471Z,53081.12
2022-12-16T07:31:43.815Z,53062.08
2022-12-16T07:32:46.729Z,53050.05
2022-12-16T07:33:49.540Z,53130.22
2022-12-16T07:34:52.483Z,53181.32
2022-12-16T07:35:55.453Z,53240.45
2022-12-16T07:36:58.438Z,53192.35
2022-12-16T07:38:01.308Z,53200.37
2022-12-16T07:39:04.439Z,53240.45
2022-12-16T07:40:07.058Z,53238.45
2022-12-16T07:41:09.831Z,53248.46
2022-12-16T07:42:12.908Z,53259.49
2022-12-16T07:43:15.796Z,53302.58
2022-12-16T07:44:18.762Z,53343.67
2022-12-16T07:45:21.330Z,53357.70
2022-12-16T07:46:24.084Z,53420.83
2022-12-16T07:47:26.673Z,53434.86
2022-12-16T07:48:29.238Z,53513.03
2022-12-16T07:49:31.905Z,53564.14
2022-12-16T07:50:34.573Z,53569.15
2022-12-16T07:51:37.247Z,53563.14
2022-12-16T07:52:40.322Z,53571.16
2022-12-16T07:53:43.098Z,53557.12
2022-12-16T07:54:45.973Z,53648.32
2022-12-16T07:55:48.845Z,53691.42
2022-12-16T07:56:51.725Z,53831.73
2022-12-16T07:57:55.006Z,53863.80
2022-12-16T07:58:57.990Z,53965.04
2022-12-16T08:00:00.754Z,54088.32
2022-12-16T08:01:07.819Z,54151.46
2022-12-16T08:02:08.244Z,54213.61
2022-12-16T08:03:11.822Z,54286.78
2022-12-16T08:04:14.717Z,54304.82
2022-12-16T08:05:17.272Z,54311.84
2022-12-16T08:06:20.151Z,54319.86
2022-12-16T08:07:23.042Z,54340.91
2022-12-16T08:08:26.310Z,54335.90
2022-12-16T08:09:29.287Z,54292.79
2022-12-16T08:10:32.169Z,54319.86
2022-12-16T08:11:34.837Z,54291.79
2022-12-16T08:12:37.705Z,54233.66
2022-12-16T08:13:41.057Z,54254.71
2022-12-16T08:14:43.969Z,54329.88
2022-12-16T08:15:46.863Z,54388.02
2022-12-16T08:16:49.716Z,54332.89
2022-12-16T08:17:52.523Z,54158.48
2022-12-16T08:18:55.568Z,54003.12
2022-12-16T08:19:58.455Z,53931.96
2022-12-16T08:21:01.635Z,53835.74
2022-12-16T08:22:04.601Z,53789.64
2022-12-16T08:23:07.533Z,53789.64
2022-12-16T08:24:10.551Z,53772.60
2022-12-16T08:25:13.333Z,53793.65
2022-12-16T08:26:16.404Z,53841.75
2022-12-16T08:27:19.382Z,53885.86
2022-12-16T08:28:21.949Z,53966.04
2022-12-16T08:29:43.768Z,54032.19
2022-12-16T08:30:29.328Z,54067.27
2022-12-16T08:31:32.116Z,54085.31
2022-12-16T08:32:34.674Z,54102.35
2022-12-16T08:33:37.886Z,54143.45
2022-12-16T08:34:40.837Z,54128.41
2022-12-16T08:35:43.512Z,54125.40
2022-12-16T08:36:46.281Z,54057.25
2022-12-16T08:37:49.160Z,53935.97
2022-12-16T08:38:51.933Z,53918.93
2022-12-16T08:40:25.823Z,53848.77
2022-12-16T08:41:00.338Z,53901.89
2022-12-16T08:42:03.258Z,53901.89
2022-12-16T08:43:10.991Z,53903.90
2022-12-16T08:44:10.496Z,53943.99
2022-12-16T08:45:13.578Z,53928.95
2022-12-16T08:46:16.606Z,53928.95
2022-12-16T08:47:19.429Z,53952.00
2022-12-16T08:48:22.302Z,53948.00
2022-12-16T08:49:25.172Z,53924.95
2022-12-16T08:50:28.150Z,53970.05
2022-12-16T08:51:31.129Z,53989.09
2022-12-16T08:52:34.313Z,54016.15
2022-12-16T08:53:37.189Z,54156.48
2022-12-16T08:54:40.065Z,54297.81
2022-12-16T08:55:43.143Z,54429.12
2022-12-16T08:56:46.022Z,54542.39
2022-12-16T08:57:49.044Z,54660.68
2022-12-16T08:58:51.872Z,54815.06
2022-12-16T08:59:55.472Z,54965.44
2022-12-16T09:01:04.730Z,55072.71
2022-12-16T09:02:03.553Z,55187.01
2022-12-16T09:03:06.826Z,55298.30
2022-12-16T09:04:09.791Z,55417.61
2022-12-16T09:05:12.709Z,55477.77
2022-12-16T09:06:15.682Z,55553.97
2022-12-16T09:07:18.455Z,55567.01
2022-12-16T09:08:21.327Z,55513.87
2022-12-16T09:09:24.200Z,55408.59
2022-12-16T09:10:27.068Z,55333.39
2022-12-16T09:11:30.369Z,55353.44
2022-12-16T09:12:33.230Z,55324.36
2022-12-16T09:13:36.545Z,55379.51
2022-12-16T09:14:39.500Z,55408.59
2022-12-16T09:15:42.358Z,55454.71
2022-12-16T09:16:45.355Z,55519.88
2022-12-16T09:17:48.028Z,55535.93
2022-12-16T09:18:50.585Z,55608.12
2022-12-16T09:19:53.989Z,55636.20
2022-12-16T09:20:57.663Z,55577.04
2022-12-16T09:22:00.641Z,55509.86
2022-12-16T09:23:03.208Z,55456.71
2022-12-16T09:24:05.878Z,55431.65
2022-12-16T09:25:08.467Z,55448.70
2022-12-16T09:26:11.194Z,55492.81
2022-12-16T09:27:13.904Z,55494.82
2022-12-16T09:28:16.558Z,55494.82
2022-12-16T09:29:19.226Z,55505.84
2022-12-16T09:30:21.899Z,55574.03
2022-12-16T09:31:24.733Z,55618.14
2022-12-16T09:32:27.648Z,55684.32
2022-12-16T09:33:30.731Z,55773.57
2022-12-16T09:34:33.600Z,55875.85
2022-12-16T09:35:36.469Z,55969.11
2022-12-16T09:36:39.040Z,56048.33
2022-12-16T09:37:41.716Z,56133.57
2022-12-16T09:38:44.280Z,56282.99
2022-12-16T09:39:46.842Z,56322.11
2022-12-16T09:40:49.519Z,56410.36
2022-12-16T09:41:52.080Z,56446.46
2022-12-16T09:42:56.498Z,56492.60
2022-12-16T09:43:59.267Z,56477.55
2022-12-16T09:45:02.140Z,56458.50
2022-12-16T09:46:05.095Z,56495.61
2022-12-16T09:47:08.689Z,56509.65
2022-12-16T09:48:12.249Z,56461.51
2022-12-16T09:49:15.176Z,56380.27
2022-12-16T09:50:18.114Z,56416.38
2022-12-16T09:51:20.924Z,56473.54
2022-12-16T09:52:23.701Z,56512.66
2022-12-16T09:53:26.881Z,56550.77
2022-12-16T09:54:29.761Z,56578.85
2022-12-16T09:55:32.625Z,56601.92
2022-12-16T09:56:35.398Z,56626.99
2022-12-16T09:57:38.271Z,56652.07
2022-12-16T09:58:41.456Z,56614.96
2022-12-16T09:59:45.051Z,56609.94
2022-12-16T10:00:47.617Z,56647.05
2022-12-16T10:01:50.483Z,56572.84
2022-12-16T10:02:53.654Z,56553.78
2022-12-16T10:03:58.227Z,56446.46
2022-12-16T10:05:00.861Z,56369.24
2022-12-16T10:06:03.443Z,56382.28
2022-12-16T10:07:05.997Z,56322.11
2022-12-16T10:08:08.578Z,56278.98
2022-12-16T10:09:11.740Z,56289.01
2022-12-16T10:10:14.627Z,56231.85
2022-12-16T10:11:17.487Z,56167.66
2022-12-16T10:12:20.362Z,56106.49
2022-12-16T10:13:23.234Z,56042.31
2022-12-16T10:14:26.420Z,55986.16
2022-12-16T10:15:29.333Z,55969.11
2022-12-16T10:16:32.187Z,55890.89
2022-12-16T10:17:34.946Z,55884.87
2022-12-16T10:18:37.872Z,55818.69
2022-12-16T10:19:40.998Z,55801.64
2022-12-16T10:20:43.872Z,55826.71
2022-12-16T10:21:46.745Z,55836.74
2022-12-16T10:22:49.622Z,55856.80
2022-12-16T10:23:52.496Z,55904.93
2022-12-16T10:24:56.086Z,55877.86
2022-12-16T10:25:58.964Z,55866.82
2022-12-16T10:27:01.971Z,55891.89
2022-12-16T10:28:04.813Z,55839.75
2022-12-16T10:29:07.691Z,55817.69
2022-12-16T10:30:11.277Z,55759.53
2022-12-16T10:31:14.180Z,55768.55
2022-12-16T10:32:17.128Z,55763.54
2022-12-16T10:33:19.910Z,55730.45
2022-12-16T10:34:22.782Z,55654.24
2022-12-16T10:35:25.859Z,55612.13
2022-12-16T10:36:28.729Z,55611.13
2022-12-16T10:37:31.503Z,55624.16
2022-12-16T10:38:34.276Z,55586.06
2022-12-16T10:39:37.148Z,55615.14
2022-12-16T10:40:40.246Z,55591.07
2022-12-16T10:41:43.002Z,55604.11
2022-12-16T10:42:45.875Z,55594.08
2022-12-16T10:43:48.647Z,55607.12
2022-12-16T10:44:51.728Z,55579.04
2022-12-16T10:45:55.809Z,55584.05
2022-12-16T10:46:59.682Z,55600.10
2022-12-16T10:48:02.505Z,55626.17
2022-12-16T10:49:05.264Z,55618.14
2022-12-16T10:50:08.013Z,55652.24
2022-12-16T10:51:11.844Z,55737.47
2022-12-16T10:52:14.514Z,55741.48
2022-12-16T10:53:17.084Z,55776.58
2022-12-16T10:54:19.552Z,55755.52
2022-12-16T10:55:22.217Z,55820.70
2022-12-16T10:56:25.195Z,55817.69
2022-12-16T10:57:27.962Z,55884.87
2022-12-16T10:58:34.239Z,55844.76
2022-12-16T10:59:35.250Z,55886.88
2022-12-16T11:00:38.034Z,55871.84
2022-12-16T11:01:40.910Z,55910.95
2022-12-16T11:02:44.274Z,55908.94
2022-12-16T11:03:47.299Z,55976.13
2022-12-16T11:04:50.131Z,56032.29
2022-12-16T11:05:53.005Z,56032.29
2022-12-16T11:06:56.111Z,56117.52
2022-12-16T11:07:58.868Z,56147.61
2022-12-16T11:09:01.633Z,56143.60
2022-12-16T11:10:04.403Z,56151.62
2022-12-16T11:11:07.276Z,56168.67
2022-12-16T11:12:10.154Z,56157.64
2022-12-16T11:13:13.031Z,56149.61
2022-12-16T11:14:15.802Z,56125.55
2022-12-16T11:15:29.312Z,56053.34
2022-12-16T11:16:22.950Z,56031.28
2022-12-16T11:17:26.167Z,55985.15
2022-12-16T11:18:29.148Z,55949.05
2022-12-16T11:19:31.916Z,55911.95
2022-12-16T11:20:34.689Z,55870.84
2022-12-16T11:21:37.564Z,55918.97
2022-12-16T11:22:40.557Z,55933.01
2022-12-16T11:23:43.311Z,56023.26
2022-12-16T11:24:46.184Z,56091.45
2022-12-16T11:25:49.157Z,56094.46
2022-12-16T11:26:52.036Z,56189.73
2022-12-16T11:27:55.532Z,56235.86
2022-12-16T11:28:58.609Z,56270.96
2022-12-16T11:30:01.379Z,56256.92
2022-12-16T11:31:04.208Z,56319.10
2022-12-16T11:32:06.817Z,56328.12
2022-12-16T11:33:09.494Z,56334.14
2022-12-16T11:34:12.057Z,56275.97
2022-12-16T11:35:14.724Z,56221.82
2022-12-16T11:36:17.396Z,56236.86
2022-12-16T11:37:21.256Z,56255.92
2022-12-16T11:38:23.966Z,56277.98
2022-12-16T11:39:26.531Z,56312.08
2022-12-16T11:40:29.205Z,56356.20
2022-12-16T11:41:31.976Z,56401.33
2022-12-16T11:42:34.649Z,56450.48
2022-12-16T11:43:37.726Z,56562.80
2022-12-16T11:44:40.393Z,56727.29
2022-12-16T11:45:42.962Z,56715.25
2022-12-16T11:46:45.721Z,56812.55
2022-12-16T11:47:48.301Z,56885.77
2022-12-16T11:48:50.974Z,56921.87
2022-12-16T11:49:53.637Z,57012.15
2022-12-16T11:50:57.846Z,57042.24
2022-12-16T11:52:28.090Z,57038.23
2022-12-16T11:53:04.724Z,57043.24
2022-12-16T11:54:07.500Z,56982.05
2022-12-16T11:55:10.312Z,56942.94
2022-12-16T11:56:16.341Z,56945.95
2022-12-16T11:57:17.037Z,56994.09
2022-12-16T11:58:19.713Z,56963.00
2022-12-16T11:59:22.487Z,56982.05
2022-12-16T12:00:25.152Z,57037.23
2022-12-16T12:01:27.863Z,57031.21
2022-12-16T12:02:30.540Z,57003.12
2022-12-16T12:03:33.766Z,56970.02
2022-12-16T12:04:36.888Z,56914.85
2022-12-16T12:05:39.530Z,56861.69
2022-12-16T12:06:42.194Z,56907.83
2022-12-16T12:07:46.231Z,56897.80
2022-12-16T12:08:49.273Z,56943.94
2022-12-16T12:09:52.050Z,56938.93
2022-12-16T12:10:55.986Z,56975.04
2022-12-16T12:11:58.928Z,56954.97
2022-12-16T12:13:01.799Z,56964.00
2022-12-16T12:14:04.670Z,56955.98
2022-12-16T12:15:07.757Z,56840.63
2022-12-16T12:16:10.622Z,56810.54
2022-12-16T12:17:13.194Z,56810.54
2022-12-16T12:18:15.868Z,56812.55
2022-12-16T12:19:18.534Z,56725.29
2022-12-16T12:20:21.414Z,56713.25
2022-12-16T12:21:24.076Z,56773.43